createdAt,value
2019-01-31T00:02:33.304Z,10.97
2019-01-31T00:07:52.082Z,10.83
2019-01-31T00:13:07.155Z,11.63
2019-01-31T00:18:29.742Z,10.90
2019-01-31T00:23:55.768Z,10.60
2019-01-31T00:29:29.728Z,10.97
2019-01-31T00:35:06.717Z,10.67
2019-01-31T00:40:33.145Z,12.30
2019-01-31T00:46:21.088Z,11.20
2019-01-31T00:51:48.650Z,11.37
2019-01-31T00:57:20.065Z,11.40
2019-01-31T01:03:08.430Z,11.50
2019-01-31T01:08:31.629Z,11.63
2019-01-31T01:13:52.816Z,11.03
2019-01-31T01:19:26.137Z,11.20
2019-01-31T01:24:51.671Z,11.40
2019-01-31T01:30:39.077Z,10.60
2019-01-31T01:36:13.676Z,10.23
2019-01-31T01:41:47.040Z,11.63
2019-01-31T01:47:00.925Z,10.10
2019-01-31T01:52:35.890Z,9.77
2019-01-31T01:58:20.625Z,10.57
2019-01-31T02:04:33.212Z,10.20
2019-01-31T02:09:52.949Z,10.57
2019-01-31T02:15:31.787Z,10.07
2019-01-31T02:21:13.410Z,10.93
2019-01-31T02:26:59.077Z,10.43
2019-01-31T02:32:25.193Z,10.20
2019-01-31T02:37:44.278Z,10.40
2019-01-31T02:42:54.273Z,11.20
2019-01-31T02:48:23.942Z,10.30
2019-01-31T02:54:04.622Z,11.03
2019-01-31T02:59:27.839Z,10.57
2019-01-31T03:05:22.275Z,10.90
2019-01-31T03:10:42.567Z,10.33
2019-01-31T03:16:14.507Z,10.60
2019-01-31T03:21:44.662Z,10.17
2019-01-31T03:27:30.822Z,9.63
2019-01-31T03:32:57.731Z,9.57
2019-01-31T03:38:45.588Z,9.83
2019-01-31T03:44:19.220Z,9.30
2019-01-31T03:49:43.679Z,10.70
2019-01-31T03:55:04.746Z,10.23
2019-01-31T04:00:29.402Z,9.77
2019-01-31T04:05:40.330Z,9.70
2019-01-31T04:10:43.977Z,9.70
2019-01-31T04:15:47.635Z,9.33
2019-01-31T04:20:51.350Z,9.60
2019-01-31T04:25:55.092Z,9.73
2019-01-31T04:30:58.735Z,9.80
2019-01-31T04:36:21.918Z,9.30
2019-01-31T04:41:25.649Z,8.60
2019-01-31T04:46:29.336Z,8.97
2019-01-31T04:51:33.011Z,10.13
2019-01-31T04:56:36.659Z,8.47
2019-01-31T05:01:40.392Z,9.80
2019-01-31T05:06:44.131Z,10.40
2019-01-31T05:11:47.856Z,10.60
2019-01-31T05:16:51.644Z,10.60
2019-01-31T05:21:55.579Z,11.30
2019-01-31T05:26:59.276Z,11.00
2019-01-31T05:32:03.041Z,11.80
2019-01-31T05:37:06.737Z,11.13
2019-01-31T05:42:10.471Z,11.37
2019-01-31T05:47:14.203Z,12.60
2019-01-31T05:52:17.923Z,11.97
2019-01-31T05:57:21.757Z,12.20
2019-01-31T06:02:25.494Z,13.30
2019-01-31T06:07:29.203Z,13.03
2019-01-31T06:12:33.187Z,13.70
2019-01-31T06:17:37.046Z,13.47
2019-01-31T06:22:40.814Z,12.97
2019-01-31T06:27:44.611Z,12.97
2019-01-31T06:32:49.600Z,12.43
2019-01-31T06:37:53.316Z,11.90
2019-01-31T06:42:57.106Z,12.70
2019-01-31T06:48:00.759Z,11.60
2019-01-31T06:53:04.811Z,11.10
2019-01-31T06:58:08.604Z,12.40
2019-01-31T07:03:12.383Z,12.07
2019-01-31T07:08:18.900Z,13.20
2019-01-31T07:13:22.691Z,12.57
2019-01-31T07:18:26.457Z,13.03
2019-01-31T07:23:30.359Z,11.60
2019-01-31T07:28:36.060Z,12.83
2019-01-31T07:33:39.761Z,11.80
2019-01-31T07:38:43.761Z,11.30
2019-01-31T07:43:47.710Z,11.90
2019-01-31T07:48:51.407Z,11.07
2019-01-31T07:53:55.120Z,12.27
2019-01-31T07:58:58.892Z,11.30
2019-01-31T08:04:03.003Z,11.83
2019-01-31T08:09:08.810Z,10.20
2019-01-31T08:14:12.454Z,10.80
2019-01-31T08:19:16.135Z,9.27
2019-01-31T08:24:19.892Z,8.80
2019-01-31T08:29:23.634Z,9.17
2019-01-31T08:34:27.558Z,9.70
2019-01-31T08:39:31.589Z,10.17
2019-01-31T08:44:35.278Z,10.13
2019-01-31T08:49:39.034Z,10.17
2019-01-31T08:54:42.752Z,9.17
2019-01-31T08:59:46.417Z,9.37
2019-01-31T09:04:50.384Z,10.23
2019-01-31T09:09:54.054Z,8.83
2019-01-31T09:14:57.867Z,8.70
2019-01-31T09:20:01.627Z,8.90
2019-01-31T09:25:44.300Z,8.27
2019-01-31T09:31:24.054Z,8.40
2019-01-31T09:37:18.142Z,8.17
2019-01-31T09:42:56.187Z,8.30
2019-01-31T09:48:37.714Z,7.40
2019-01-31T09:54:37.873Z,7.33
2019-01-31T10:00:06.615Z,7.87
2019-01-31T10:05:43.434Z,7.60
2019-01-31T10:11:14.514Z,7.77
2019-01-31T10:16:38.757Z,7.30
2019-01-31T10:21:55.364Z,8.07
2019-01-31T10:27:44.945Z,7.50
2019-01-31T10:33:22.952Z,7.20
2019-01-31T10:39:13.114Z,7.80
2019-01-31T10:44:50.741Z,7.20
2019-01-31T10:50:39.633Z,7.33
2019-01-31T10:56:33.420Z,7.37
2019-01-31T11:02:17.332Z,7.80
2019-01-31T11:07:48.775Z,8.90
2019-01-31T11:13:28.645Z,8.90
2019-01-31T11:18:51.026Z,9.33
2019-01-31T11:24:20.524Z,9.10
2019-01-31T11:30:07.857Z,8.33
2019-01-31T11:36:08.012Z,8.43
2019-01-31T11:41:22.239Z,8.40
2019-01-31T11:47:01.095Z,7.90
2019-01-31T11:52:30.735Z,7.50
2019-01-31T11:58:02.119Z,7.20
2019-01-31T12:03:05.709Z,7.70
2019-01-31T12:08:12.091Z,7.30
2019-01-31T12:13:23.135Z,7.17
2019-01-31T12:18:21.379Z,6.90
2019-01-31T12:23:25.036Z,6.87
2019-01-31T12:28:28.729Z,6.60
2019-01-31T12:33:32.454Z,6.43
2019-01-31T12:38:37.148Z,6.17
2019-01-31T12:43:41.055Z,7.00
2019-01-31T12:48:45.671Z,6.93
2019-01-31T12:53:49.485Z,6.83
2019-01-31T12:58:53.235Z,6.60
2019-01-31T13:03:56.953Z,7.20
2019-01-31T13:09:01.138Z,6.30
2019-01-31T13:14:04.907Z,5.83
2019-01-31T13:19:09.526Z,6.10
2019-01-31T13:24:13.280Z,6.30
2019-01-31T13:29:16.999Z,5.80
2019-01-31T13:34:20.748Z,5.23
2019-01-31T13:39:25.132Z,5.40
2019-01-31T13:44:28.993Z,6.10
2019-01-31T13:49:32.800Z,6.50
2019-01-31T13:54:36.731Z,6.80
2019-01-31T13:59:40.655Z,6.87
2019-01-31T14:04:44.638Z,7.70
2019-01-31T14:09:48.442Z,7.30
2019-01-31T14:14:52.192Z,7.17
2019-01-31T14:19:55.960Z,6.20
2019-01-31T14:24:59.651Z,6.67
2019-01-31T14:30:03.446Z,6.60
2019-01-31T14:35:08.325Z,5.90
2019-01-31T14:40:12.059Z,6.47
2019-01-31T14:45:16.256Z,6.20
2019-01-31T14:50:25.432Z,6.60
2019-01-31T14:55:29.286Z,6.37
2019-01-31T15:00:32.987Z,6.07
2019-01-31T15:05:37.006Z,6.03
2019-01-31T15:10:41.192Z,5.93
2019-01-31T15:15:45.062Z,5.80
2019-01-31T15:20:48.841Z,5.20
2019-01-31T15:25:53.448Z,6.13
2019-01-31T15:30:57.236Z,5.30
2019-01-31T15:36:00.981Z,6.00
2019-01-31T15:41:04.691Z,6.73
2019-01-31T15:46:08.433Z,5.77
2019-01-31T15:51:12.339Z,5.10
2019-01-31T15:56:16.365Z,5.17
2019-01-31T16:01:20.090Z,5.10
2019-01-31T16:06:24.192Z,5.57
2019-01-31T16:11:28.019Z,4.80
2019-01-31T16:16:31.783Z,5.10
2019-01-31T16:21:35.515Z,5.20
2019-01-31T16:26:39.291Z,5.07
2019-01-31T16:31:43.107Z,5.10
2019-01-31T16:36:48.046Z,4.57
2019-01-31T16:41:52.170Z,5.07
2019-01-31T16:46:56.019Z,4.50
2019-01-31T16:51:59.771Z,4.70
2019-01-31T16:57:03.560Z,4.80
2019-01-31T17:02:07.760Z,4.53
2019-01-31T17:07:11.621Z,4.53
2019-01-31T17:12:17.351Z,4.63
2019-01-31T17:17:21.043Z,4.30
2019-01-31T17:22:24.820Z,4.67
2019-01-31T17:27:28.676Z,5.43
2019-01-31T17:32:32.756Z,5.37
2019-01-31T17:37:36.570Z,7.23
2019-01-31T17:42:40.444Z,9.03
2019-01-31T17:47:44.184Z,10.37
2019-01-31T17:52:47.898Z,9.80
2019-01-31T17:57:51.598Z,9.83
2019-01-31T18:02:55.526Z,10.60
2019-01-31T18:07:59.240Z,10.40
2019-01-31T18:13:05.626Z,9.70
2019-01-31T18:18:09.062Z,10.87
2019-01-31T18:23:32.130Z,10.80
2019-01-31T18:28:37.157Z,11.60
2019-01-31T18:33:40.932Z,12.50
2019-01-31T18:38:44.777Z,15.70
2019-01-31T18:43:48.536Z,18.33
2019-01-31T18:48:52.585Z,16.87
2019-01-31T18:53:56.351Z,19.90
2019-01-31T18:59:00.207Z,18.40
2019-01-31T19:04:04.034Z,20.63
2019-01-31T19:09:07.963Z,21.97
2019-01-31T19:14:14.394Z,22.20
2019-01-31T19:19:17.198Z,22.60
2019-01-31T19:24:21.034Z,25.10
2019-01-31T19:29:25.188Z,24.93
2019-01-31T19:34:28.929Z,24.90
2019-01-31T19:39:35.572Z,25.53
2019-01-31T19:44:38.162Z,24.93
2019-01-31T19:49:41.996Z,24.60
2019-01-31T19:54:45.785Z,26.60
2019-01-31T19:59:49.598Z,26.50
2019-01-31T20:04:53.404Z,26.63
2019-01-31T20:09:57.296Z,26.90
2019-01-31T20:15:01.231Z,26.83
2019-01-31T20:20:06.578Z,27.43
2019-01-31T20:25:10.698Z,27.43
2019-01-31T20:30:15.892Z,28.70
2019-01-31T20:35:19.905Z,28.40
2019-01-31T20:40:26.051Z,28.30
2019-01-31T20:45:29.852Z,27.20
2019-01-31T20:50:34.565Z,28.10
2019-01-31T20:55:38.343Z,27.80
2019-01-31T21:00:46.373Z,27.67
2019-01-31T21:05:50.261Z,29.80
2019-01-31T21:10:54.096Z,26.00
2019-01-31T21:15:59.879Z,25.73
2019-01-31T21:21:05.371Z,26.30
2019-01-31T21:26:09.721Z,24.90
2019-01-31T21:31:13.512Z,26.33
2019-01-31T21:36:17.399Z,25.47
2019-01-31T21:41:21.177Z,24.57
2019-01-31T21:46:24.972Z,22.57
2019-01-31T21:51:28.831Z,24.07
2019-01-31T21:56:32.976Z,22.47
2019-01-31T22:01:36.909Z,22.63
2019-01-31T22:06:41.251Z,21.00
2019-01-31T22:11:45.009Z,21.13
2019-01-31T22:16:48.879Z,19.63
2019-01-31T22:21:54.277Z,20.07
2019-01-31T22:26:58.144Z,20.67
2019-01-31T22:32:01.995Z,19.80
2019-01-31T22:37:05.725Z,20.27
2019-01-31T22:42:09.438Z,20.93
2019-01-31T22:47:13.288Z,19.17
2019-01-31T22:52:17.081Z,18.60
2019-01-31T22:57:20.900Z,17.60
2019-01-31T23:02:24.675Z,18.37
2019-01-31T23:07:28.419Z,17.20
2019-01-31T23:12:32.131Z,17.20
2019-01-31T23:17:37.232Z,17.20
2019-01-31T23:22:41.337Z,17.93
2019-01-31T23:27:45.128Z,16.87
2019-01-31T23:32:48.804Z,16.73
2019-01-31T23:37:52.513Z,16.93
2019-01-31T23:42:56.197Z,17.00
2019-01-31T23:48:00.200Z,18.37
2019-01-31T23:53:03.903Z,17.60
2019-01-31T23:58:07.579Z,17.67
